Time;durP1;ratioP1;P1;durP2;ratioP2;P2;SDS_P1;SDS_P2;PMS_P1;PMS_P2;Temp;Humidity;BMP_temperature;BMP_pressure;BME280_temperature;BME280_humidity;BME280_pressure;Samples;Min_cycle;Max_cycle;Signal;HPM_P1;HPM_P2
2022/02/07 00:01:46;;;;;;;;;;;5.70;99.90;;;;;;4994555;28;20396;-77
2022/02/07 00:04:17;;;;;;;;;;;5.70;99.90;;;;;;4995042;28;19933;-76
2022/02/07 00:06:44;;;;;;;;;;;5.60;99.90;;;;;;4992317;28;19933;-77
2022/02/07 00:09:13;;;;;;;;;;;5.60;99.90;;;;;;4994735;28;19925;-77
2022/02/07 00:11:39;;;;;;;;;;;5.60;99.90;;;;;;4991041;28;19944;-76
2022/02/07 00:14:06;;;;;;;;;;;5.60;99.90;;;;;;4992898;28;19926;-74
2022/02/07 00:16:32;;;;;;;;;;;5.60;99.90;;;;;;4991555;28;20316;-75
2022/02/07 00:18:59;;;;;;;;;;;5.70;99.90;;;;;;4992902;28;19953;-76
2022/02/07 00:21:26;;;;;;;;;;;5.70;99.90;;;;;;4993612;28;19925;-73
2022/02/07 00:23:53;;;;;;;;;;;5.70;99.90;;;;;;4992075;28;20393;-75
2022/02/07 00:26:21;;;;;;;;;;;5.60;99.90;;;;;;4991340;28;20337;-74
2022/02/07 00:28:47;;;;;;;;;;;5.60;99.90;;;;;;4990561;28;20282;-74
2022/02/07 00:31:14;;;;;;;;;;;5.50;99.90;;;;;;4993221;28;20371;-74
2022/02/07 00:33:40;;;;;;;;;;;5.50;99.90;;;;;;4986671;28;19933;-76
2022/02/07 00:36:07;;;;;;;;;;;5.50;99.90;;;;;;4995942;28;19975;-77
2022/02/07 00:38:34;;;;;;;;;;;5.30;99.90;;;;;;4996482;28;19932;-76
2022/02/07 00:41:16;;;;;;;;;;;5.30;99.90;;;;;;4997103;28;19933;-75
2022/02/07 00:43:46;;;;;;;;;;;5.20;99.90;;;;;;4991490;28;19932;-74
2022/02/07 00:46:20;;;;;;;;;;;5.20;99.90;;;;;;4993102;28;19958;-75
2022/02/07 00:48:47;;;;;;;;;;;5.20;99.90;;;;;;4990572;28;19933;-75
2022/02/07 00:51:13;;;;;;;;;;;5.20;99.90;;;;;;4993681;28;19925;-75
2022/02/07 00:53:40;;;;;;;;;;;5.20;99.90;;;;;;4993159;28;19925;-75
2022/02/07 00:56:07;;;;;;;;;;;5.10;99.90;;;;;;4994926;28;20010;-74
2022/02/07 00:58:33;;;;;;;;;;;5.00;99.90;;;;;;4994506;28;19930;-74
2022/02/07 01:01:01;;;;;;;;;;;5.10;99.90;;;;;;4995201;28;19981;-74
2022/02/07 01:03:28;;;;;;;;;;;5.00;99.90;;;;;;4991920;28;19926;-74
2022/02/07 01:05:55;;;;;;;;;;;5.00;99.90;;;;;;4988847;28;19932;-74
2022/02/07 01:08:30;;;;;;;;;;;5.00;99.90;;;;;;4989968;28;19948;-74
2022/02/07 01:11:05;;;;;;;;;;;5.00;99.90;;;;;;4994739;28;19930;-74
2022/02/07 01:13:46;;;;;;;;;;;5.00;99.90;;;;;;4996875;28;19937;-74
2022/02/07 01:16:34;;;;;;;;;;;5.00;99.90;;;;;;4988952;28;19926;-75
2022/02/07 01:49:40;;;;;;;;;;;4.80;99.90;;;;;;4989602;28;20441;-74
2022/02/07 01:52:34;;;;;;;;;;;4.70;99.90;;;;;;4985655;28;19933;-74
2022/02/07 01:55:07;;;;;;;;;;;4.60;99.90;;;;;;4988329;28;19925;-74
2022/02/07 01:57:34;;;;;;;;;;;4.60;99.90;;;;;;4986421;28;19930;-74
2022/02/07 02:00:00;;;;;;;;;;;4.60;99.90;;;;;;4992521;28;19926;-74
2022/02/07 02:02:27;;;;;;;;;;;4.50;99.90;;;;;;4991908;28;19926;-73
2022/02/07 02:04:55;;;;;;;;;;;4.50;99.90;;;;;;4994434;28;19926;-73
2022/02/07 02:07:22;;;;;;;;;;;4.60;99.90;;;;;;4991135;28;19969;-74
2022/02/07 02:09:49;;;;;;;;;;;4.60;99.90;;;;;;4993140;28;19948;-74
2022/02/07 02:12:15;;;;;;;;;;;4.70;99.90;;;;;;4986621;28;20028;-72
2022/02/07 02:14:54;;;;;;;;;;;4.60;99.90;;;;;;4991374;28;20053;-73
2022/02/07 02:17:51;;;;;;;;;;;4.60;99.90;;;;;;4990550;28;19925;-73
2022/02/07 02:34:32;;;;;;;;;;;4.40;99.90;;;;;;4989720;28;19932;-74
2022/02/07 02:37:09;;;;;;;;;;;4.40;99.90;;;;;;4988312;28;19984;-74
2022/02/07 02:45:30;;;;;;;;;;;4.30;99.90;;;;;;4988219;28;20304;-74
2022/02/07 02:47:59;;;;;;;;;;;4.20;99.90;;;;;;4989816;28;19933;-74
2022/02/07 02:50:30;;;;;;;;;;;4.20;99.90;;;;;;4991458;28;20313;-75
2022/02/07 02:52:57;;;;;;;;;;;4.20;99.90;;;;;;4988488;28;19930;-75
2022/02/07 02:55:25;;;;;;;;;;;4.20;99.90;;;;;;4989692;28;19937;-75
2022/02/07 02:57:52;;;;;;;;;;;4.20;99.90;;;;;;4988056;28;19929;-76
2022/02/07 03:00:19;;;;;;;;;;;4.20;99.90;;;;;;4997967;28;19925;-74
2022/02/07 03:02:45;;;;;;;;;;;4.20;99.90;;;;;;4994364;28;19968;-75
2022/02/07 03:05:15;;;;;;;;;;;4.30;99.90;;;;;;4995009;28;19973;-75
2022/02/07 03:07:41;;;;;;;;;;;4.20;99.90;;;;;;4983002;28;19926;-75
2022/02/07 03:10:09;;;;;;;;;;;4.20;99.90;;;;;;4992751;28;20415;-75
2022/02/07 03:12:44;;;;;;;;;;;4.20;99.90;;;;;;4990989;28;19973;-75
2022/02/07 03:17:54;;;;;;;;;;;4.20;99.90;;;;;;4988061;28;19938;-75
2022/02/07 03:20:22;;;;;;;;;;;4.10;99.90;;;;;;4991207;28;20016;-75
2022/02/07 03:22:48;;;;;;;;;;;4.10;99.90;;;;;;4989132;28;19930;-76
2022/02/07 03:25:15;;;;;;;;;;;4.00;99.90;;;;;;4989094;28;19926;-76
2022/02/07 03:27:43;;;;;;;;;;;4.00;99.90;;;;;;4988785;28;20440;-75
2022/02/07 03:30:10;;;;;;;;;;;4.00;99.90;;;;;;4991100;28;19934;-75
2022/02/07 03:32:37;;;;;;;;;;;4.10;99.90;;;;;;4991988;28;19926;-75
2022/02/07 03:35:03;;;;;;;;;;;4.10;99.90;;;;;;4994279;28;19925;-75
2022/02/07 03:37:30;;;;;;;;;;;4.00;99.90;;;;;;4993521;28;19936;-76
2022/02/07 03:39:57;;;;;;;;;;;4.00;99.90;;;;;;4995384;28;20402;-75
2022/02/07 03:42:23;;;;;;;;;;;4.00;99.90;;;;;;5000620;28;19933;-75
2022/02/07 03:44:51;;;;;;;;;;;3.90;99.90;;;;;;4998232;28;19926;-74
2022/02/07 03:47:18;;;;;;;;;;;3.90;99.90;;;;;;4995111;28;20016;-75
2022/02/07 03:49:45;;;;;;;;;;;3.90;99.90;;;;;;4994281;28;20020;-75
2022/02/07 03:52:11;;;;;;;;;;;3.90;99.90;;;;;;4994707;28;20301;-75
2022/02/07 03:54:38;;;;;;;;;;;3.90;99.90;;;;;;4993664;28;21322;-75
2022/02/07 03:57:05;;;;;;;;;;;3.90;99.90;;;;;;4992343;28;19930;-75
2022/02/07 03:59:32;;;;;;;;;;;3.90;99.90;;;;;;4991400;28;19930;-75
2022/02/07 04:02:00;;;;;;;;;;;3.80;99.90;;;;;;4995232;28;20438;-75
2022/02/07 04:04:27;;;;;;;;;;;3.90;99.90;;;;;;4995959;28;20371;-75
2022/02/07 04:06:54;;;;;;;;;;;3.80;99.90;;;;;;4990870;28;19933;-75
2022/02/07 04:09:25;;;;;;;;;;;3.80;99.90;;;;;;4993299;28;20020;-75
2022/02/07 04:11:56;;;;;;;;;;;3.70;99.90;;;;;;4993801;28;19988;-75
2022/02/07 04:14:25;;;;;;;;;;;3.70;99.90;;;;;;4995714;28;19948;-76
2022/02/07 04:16:52;;;;;;;;;;;3.80;99.90;;;;;;4989931;28;19933;-75
2022/02/07 04:19:22;;;;;;;;;;;3.80;99.90;;;;;;4994840;28;20013;-75
2022/02/07 04:21:50;;;;;;;;;;;3.80;99.90;;;;;;4993347;28;19937;-75
2022/02/07 04:24:17;;;;;;;;;;;3.70;99.90;;;;;;4996259;28;20021;-75
2022/02/07 04:26:44;;;;;;;;;;;3.70;99.90;;;;;;4991713;28;19926;-75
2022/02/07 04:29:10;;;;;;;;;;;3.60;99.90;;;;;;4997073;28;19930;-75
2022/02/07 04:31:37;;;;;;;;;;;3.60;99.90;;;;;;4994823;28;19932;-75
2022/02/07 04:34:04;;;;;;;;;;;3.50;99.90;;;;;;4993417;28;20008;-75
2022/02/07 04:36:32;;;;;;;;;;;3.50;99.90;;;;;;4993013;28;19930;-75
2022/02/07 04:38:59;;;;;;;;;;;3.50;99.90;;;;;;4993687;28;19926;-75
2022/02/07 04:41:25;;;;;;;;;;;3.50;99.90;;;;;;4996367;28;20385;-75
2022/02/07 04:43:56;;;;;;;;;;;3.50;99.90;;;;;;4990746;28;19926;-75
2022/02/07 04:46:36;;;;;;;;;;;3.40;99.90;;;;;;4995309;28;20247;-76
2022/02/07 04:49:17;;;;;;;;;;;3.40;99.90;;;;;;4993619;28;19933;-75
2022/02/07 04:57:27;;;;;;;;;;;3.30;99.90;;;;;;4987907;28;20008;-75
2022/02/07 05:00:02;;;;;;;;;;;3.40;99.90;;;;;;4995419;28;20270;-75
2022/02/07 05:02:43;;;;;;;;;;;3.30;99.90;;;;;;4983436;28;19933;-74
2022/02/07 05:05:22;;;;;;;;;;;3.30;99.90;;;;;;4990644;28;20016;-75
2022/02/07 05:13:44;;;;;;;;;;;3.30;99.90;;;;;;4946686;28;19938;-75
2022/02/07 05:16:19;;;;;;;;;;;3.40;99.90;;;;;;4950846;29;19974;-75
2022/02/07 05:18:48;;;;;;;;;;;3.40;99.90;;;;;;4969119;28;20483;-76
2022/02/07 05:21:14;;;;;;;;;;;3.40;99.90;;;;;;4993488;28;19926;-75
2022/02/07 05:23:42;;;;;;;;;;;3.40;99.90;;;;;;4991921;28;20395;-76
2022/02/07 05:26:09;;;;;;;;;;;3.40;99.90;;;;;;4993972;28;19956;-76
2022/02/07 05:28:36;;;;;;;;;;;3.30;99.90;;;;;;4993544;28;19925;-77
2022/02/07 05:31:03;;;;;;;;;;;3.40;99.90;;;;;;4993040;28;19996;-76
2022/02/07 05:33:29;;;;;;;;;;;3.30;99.90;;;;;;4991379;28;19948;-75
2022/02/07 05:35:56;;;;;;;;;;;3.30;99.90;;;;;;4992935;28;19932;-76
2022/02/07 05:38:23;;;;;;;;;;;3.30;99.90;;;;;;4989814;28;19932;-76
2022/02/07 05:40:55;;;;;;;;;;;3.20;99.90;;;;;;4993674;28;19968;-75
2022/02/07 05:43:22;;;;;;;;;;;3.30;99.90;;;;;;4987629;28;19930;-76
2022/02/07 05:45:48;;;;;;;;;;;3.20;99.90;;;;;;4994230;28;19977;-75
2022/02/07 05:48:15;;;;;;;;;;;3.30;99.90;;;;;;4991377;28;19981;-76
2022/02/07 05:50:42;;;;;;;;;;;3.30;99.90;;;;;;4992912;28;20288;-75
2022/02/07 05:53:08;;;;;;;;;;;3.50;99.90;;;;;;4992155;28;19925;-76
2022/02/07 05:55:35;;;;;;;;;;;3.50;99.90;;;;;;4993829;28;19926;-77
2022/02/07 05:58:03;;;;;;;;;;;3.50;99.90;;;;;;4995056;28;19932;-76
2022/02/07 06:00:32;;;;;;;;;;;3.50;99.90;;;;;;4996595;28;19932;-75
2022/02/07 06:02:59;;;;;;;;;;;3.50;99.90;;;;;;4986669;28;19925;-76
2022/02/07 06:05:26;;;;;;;;;;;3.50;99.90;;;;;;4997542;28;19988;-76
2022/02/07 06:07:53;;;;;;;;;;;3.50;99.90;;;;;;4994374;28;19940;-75
2022/02/07 06:10:19;;;;;;;;;;;3.40;99.90;;;;;;4993049;28;20013;-76
2022/02/07 06:12:47;;;;;;;;;;;3.50;99.90;;;;;;4994115;28;19977;-75
2022/02/07 06:15:16;;;;;;;;;;;3.60;99.90;;;;;;4995578;28;20012;-75
2022/02/07 06:17:44;;;;;;;;;;;3.60;99.90;;;;;;4991282;28;20389;-75
2022/02/07 06:20:11;;;;;;;;;;;3.60;99.90;;;;;;4994214;28;20004;-73
2022/02/07 06:22:38;;;;;;;;;;;3.60;99.90;;;;;;4994166;28;20012;-75
2022/02/07 06:25:05;;;;;;;;;;;3.60;99.90;;;;;;4993205;28;19925;-75
2022/02/07 06:27:32;;;;;;;;;;;3.70;99.90;;;;;;4995886;28;19929;-76
2022/02/07 06:29:58;;;;;;;;;;;3.70;99.90;;;;;;4995151;28;19926;-76
2022/02/07 06:32:26;;;;;;;;;;;3.80;99.90;;;;;;4995952;28;19926;-76
2022/02/07 06:34:55;;;;;;;;;;;3.80;99.90;;;;;;4996317;28;19926;-77
2022/02/07 06:37:22;;;;;;;;;;;3.90;99.90;;;;;;4994532;28;19930;-77
2022/02/07 06:39:48;;;;;;;;;;;3.90;99.90;;;;;;4992605;28;19929;-77
2022/02/07 06:42:15;;;;;;;;;;;3.90;99.90;;;;;;4991914;28;20020;-76
2022/02/07 06:44:42;;;;;;;;;;;3.90;99.90;;;;;;4990535;28;19929;-76
2022/02/07 06:47:09;;;;;;;;;;;4.00;99.90;;;;;;4991115;28;20024;-75
2022/02/07 06:49:37;;;;;;;;;;;4.00;99.90;;;;;;4991455;28;19937;-75
2022/02/07 06:52:04;;;;;;;;;;;4.10;99.90;;;;;;4988168;28;20333;-76
2022/02/07 06:54:30;;;;;;;;;;;4.00;99.90;;;;;;4988842;28;19952;-76
2022/02/07 06:56:57;;;;;;;;;;;4.10;99.90;;;;;;4988270;28;20020;-75
2022/02/07 06:59:25;;;;;;;;;;;4.10;99.90;;;;;;4990522;28;20356;-76
2022/02/07 07:01:52;;;;;;;;;;;4.10;99.90;;;;;;4974816;28;19927;-76
2022/02/07 07:04:18;;;;;;;;;;;4.10;99.90;;;;;;4972987;28;19968;-76
2022/02/07 07:06:47;;;;;;;;;;;4.20;99.90;;;;;;4973247;28;19976;-75
2022/02/07 07:09:13;;;;;;;;;;;4.20;99.90;;;;;;4970267;28;19960;-76
2022/02/07 07:11:41;;;;;;;;;;;4.10;99.90;;;;;;4973500;28;19930;-76
2022/02/07 07:14:16;;;;;;;;;;;4.10;99.90;;;;;;4990761;28;19932;-77
2022/02/07 07:16:51;;;;;;;;;;;4.20;99.90;;;;;;4986908;28;20400;-76
2022/02/07 07:19:18;;;;;;;;;;;4.20;99.90;;;;;;4974033;28;19937;-73
2022/02/07 07:21:47;;;;;;;;;;;4.20;99.90;;;;;;4990873;28;20021;-75
2022/02/07 07:24:14;;;;;;;;;;;4.20;99.90;;;;;;4991994;28;19933;-75
2022/02/07 07:26:40;;;;;;;;;;;4.20;99.90;;;;;;4981627;28;19926;-75
2022/02/07 07:29:11;;;;;;;;;;;4.20;99.90;;;;;;4982645;28;19934;-76
2022/02/07 07:31:43;;;;;;;;;;;4.20;99.90;;;;;;4983033;28;19940;-76
2022/02/07 07:34:09;;;;;;;;;;;4.20;99.90;;;;;;4985568;28;19980;-76
2022/02/07 07:36:38;;;;;;;;;;;4.30;99.90;;;;;;4989632;28;20017;-77
2022/02/07 07:39:06;;;;;;;;;;;4.30;99.90;;;;;;4973339;28;20044;-75
2022/02/07 07:41:33;;;;;;;;;;;4.30;99.90;;;;;;4986162;28;19937;-75
2022/02/07 07:44:00;;;;;;;;;;;4.30;99.90;;;;;;4985094;28;20029;-75
2022/02/07 07:46:30;;;;;;;;;;;4.40;99.90;;;;;;4984851;28;19926;-75
2022/02/07 07:49:01;;;;;;;;;;;4.40;99.90;;;;;;4984076;28;19988;-75
2022/02/07 07:51:35;;;;;;;;;;;4.40;99.90;;;;;;4986143;28;19926;-75
2022/02/07 07:54:17;;;;;;;;;;;4.50;99.90;;;;;;4993644;28;20385;-76
2022/02/07 08:02:15;;;;;;;;;;;4.50;99.90;;;;;;4989163;28;19932;-75
2022/02/07 08:04:44;;;;;;;;;;;4.50;99.90;;;;;;4987141;28;19937;-75
2022/02/07 08:07:17;;;;;;;;;;;4.60;99.90;;;;;;4986058;28;20017;-76
2022/02/07 08:12:29;;;;;;;;;;;4.60;99.90;;;;;;4974443;28;20330;-75
2022/02/07 08:14:56;;;;;;;;;;;4.60;99.90;;;;;;4990689;28;19988;-76
2022/02/07 08:17:23;;;;;;;;;;;4.60;99.90;;;;;;4990470;28;19925;-76
2022/02/07 08:19:51;;;;;;;;;;;4.60;99.90;;;;;;4991568;28;20588;-75
2022/02/07 08:22:17;;;;;;;;;;;4.70;99.90;;;;;;4990522;28;19934;-76
2022/02/07 08:24:44;;;;;;;;;;;4.70;99.90;;;;;;4994731;28;19926;-75
2022/02/07 08:27:11;;;;;;;;;;;4.80;99.90;;;;;;4992798;28;19932;-75
2022/02/07 08:29:39;;;;;;;;;;;4.80;99.90;;;;;;4992897;28;20438;-75
2022/02/07 08:32:06;;;;;;;;;;;4.80;99.90;;;;;;4990338;28;19934;-75
2022/02/07 08:34:33;;;;;;;;;;;4.80;99.90;;;;;;4988278;28;20715;-75
2022/02/07 08:37:02;;;;;;;;;;;4.70;99.90;;;;;;4992769;28;19934;-75
2022/02/07 08:39:29;;;;;;;;;;;4.80;99.90;;;;;;4993096;28;19925;-75
2022/02/07 08:41:56;;;;;;;;;;;4.80;99.90;;;;;;4993559;28;19925;-75
2022/02/07 08:44:22;;;;;;;;;;;5.90;99.90;;;;;;4993430;28;19952;-75
2022/02/07 08:46:50;;;;;;;;;;;7.00;99.70;;;;;;4991892;28;19930;-76
2022/02/07 08:49:17;;;;;;;;;;;8.20;96.20;;;;;;4990857;28;19961;-76
2022/02/07 08:51:44;;;;;;;;;;;9.00;93.50;;;;;;4991649;28;20407;-76
2022/02/07 08:54:17;;;;;;;;;;;9.60;90.20;;;;;;4990717;28;20019;-76
2022/02/07 08:56:50;;;;;;;;;;;10.10;83.10;;;;;;4990943;28;19933;-76
2022/02/07 08:59:18;;;;;;;;;;;9.70;80.90;;;;;;4991087;28;19941;-75
2022/02/07 09:01:51;;;;;;;;;;;9.50;80.30;;;;;;4986998;28;20385;-75
2022/02/07 09:04:45;;;;;;;;;;;9.50;78.90;;;;;;4986869;28;19949;-75
2022/02/07 09:07:16;;;;;;;;;;;9.00;79.80;;;;;;4991153;28;20444;-75
2022/02/07 09:09:44;;;;;;;;;;;8.70;81.50;;;;;;4987244;28;20037;-75
2022/02/07 09:12:12;;;;;;;;;;;8.90;82.20;;;;;;4990730;28;20025;-75
2022/02/07 09:14:44;;;;;;;;;;;8.70;81.30;;;;;;4989852;28;19926;-75
2022/02/07 09:17:11;;;;;;;;;;;9.20;81.20;;;;;;4992888;28;20389;-75
2022/02/07 09:19:40;;;;;;;;;;;9.60;79.00;;;;;;4994425;28;19933;-75
2022/02/07 09:22:07;;;;;;;;;;;10.60;75.50;;;;;;4994100;28;20301;-75
2022/02/07 09:24:34;;;;;;;;;;;11.30;70.90;;;;;;4991537;28;19926;-75
2022/02/07 09:27:01;;;;;;;;;;;11.70;64.20;;;;;;4991992;28;20017;-75
2022/02/07 09:29:27;;;;;;;;;;;12.10;60.20;;;;;;4992120;28;19925;-75
2022/02/07 09:31:54;;;;;;;;;;;12.30;57.30;;;;;;4992560;28;19926;-76
2022/02/07 09:34:21;;;;;;;;;;;11.50;57.60;;;;;;4991746;28;19926;-76
2022/02/07 09:36:52;;;;;;;;;;;11.60;56.40;;;;;;4991295;28;20146;-75
2022/02/07 09:39:19;;;;;;;;;;;11.80;56.10;;;;;;4988246;28;20020;-75
2022/02/07 09:41:48;;;;;;;;;;;12.10;54.80;;;;;;4991721;28;19945;-74
2022/02/07 09:44:16;;;;;;;;;;;11.10;54.80;;;;;;4991523;28;19926;-74
2022/02/07 09:46:46;;;;;;;;;;;9.30;59.00;;;;;;4980025;28;20017;-75
2022/02/07 09:49:14;;;;;;;;;;;8.30;64.70;;;;;;4993238;28;19925;-75
2022/02/07 09:51:42;;;;;;;;;;;7.60;69.30;;;;;;4993425;28;20464;-76
2022/02/07 09:54:11;;;;;;;;;;;7.30;72.70;;;;;;4989313;28;19980;-76
2022/02/07 09:56:37;;;;;;;;;;;7.00;75.90;;;;;;4989655;28;19926;-75
2022/02/07 09:59:04;;;;;;;;;;;7.00;78.10;;;;;;4992130;28;19930;-75
2022/02/07 10:01:35;;;;;;;;;;;6.80;79.50;;;;;;4986721;28;20020;-75
2022/02/07 10:04:06;;;;;;;;;;;6.60;80.00;;;;;;4985833;28;19925;-73
2022/02/07 10:06:42;;;;;;;;;;;6.50;80.70;;;;;;4982083;28;19925;-74
2022/02/07 10:09:19;;;;;;;;;;;6.50;81.80;;;;;;4988707;28;20940;-75
2022/02/07 10:12:06;;;;;;;;;;;6.50;82.70;;;;;;4986851;28;19976;-75
2022/02/07 10:14:41;;;;;;;;;;;6.50;82.60;;;;;;4995737;28;19926;-75
2022/02/07 10:17:25;;;;;;;;;;;6.50;84.20;;;;;;4987653;28;19926;-75
2022/02/07 10:20:10;;;;;;;;;;;6.50;83.80;;;;;;4986806;28;19933;-74
2022/02/07 10:23:06;;;;;;;;;;;6.50;83.90;;;;;;4990545;28;19925;-75
2022/02/07 10:40:11;;;;;;;;;;;6.90;83.10;;;;;;4990888;28;20408;-76
2022/02/07 10:43:08;;;;;;;;;;;7.00;84.40;;;;;;4989973;28;19980;-75
2022/02/07 10:45:36;;;;;;;;;;;7.00;84.20;;;;;;4978059;28;19929;-75
2022/02/07 10:48:07;;;;;;;;;;;7.00;83.10;;;;;;4987979;28;19926;-75
2022/02/07 10:50:34;;;;;;;;;;;7.00;83.30;;;;;;4983518;28;19926;-77
2022/02/07 10:53:01;;;;;;;;;;;7.00;83.80;;;;;;4985438;28;19925;-74
2022/02/07 10:55:29;;;;;;;;;;;7.10;83.70;;;;;;4987297;28;19926;-75
2022/02/07 10:57:58;;;;;;;;;;;7.10;82.10;;;;;;4990808;28;19932;-74
2022/02/07 11:00:29;;;;;;;;;;;7.10;82.40;;;;;;4991542;28;19925;-74
2022/02/07 11:03:05;;;;;;;;;;;7.10;82.50;;;;;;4987444;28;19973;-73
2022/02/07 11:05:38;;;;;;;;;;;7.10;83.10;;;;;;4986118;28;19929;-74
2022/02/07 11:08:21;;;;;;;;;;;7.30;83.70;;;;;;4983678;28;19972;-75
2022/02/07 11:16:38;;;;;;;;;;;7.10;83.00;;;;;;5122974;27;19924;-75
2022/02/07 11:19:13;;;;;;;;;;;7.20;83.40;;;;;;5121125;27;19927;-74
2022/02/07 11:22:08;;;;;;;;;;;7.10;81.30;;;;;;5126732;27;19923;-74
2022/02/07 11:24:48;;;;;;;;;;;7.20;80.80;;;;;;5119382;28;19928;-81
2022/02/07 11:27:37;;;;;;;;;;;7.40;81.50;;;;;;5124230;28;20382;-75
2022/02/07 11:30:08;;;;;;;;;;;7.30;80.00;;;;;;5129065;28;19928;-74
2022/02/07 11:32:57;;;;;;;;;;;7.50;79.40;;;;;;5128814;28;19932;-75
2022/02/07 11:35:25;;;;;;;;;;;7.50;78.10;;;;;;5122242;27;19924;-74
2022/02/07 11:37:53;;;;;;;;;;;7.40;77.20;;;;;;5130205;27;19930;-74
2022/02/07 11:40:27;;;;;;;;;;;7.50;77.80;;;;;;5131485;28;19930;-75
2022/02/07 11:43:06;;;;;;;;;;;7.60;77.40;;;;;;5125735;27;20023;-74
2022/02/07 11:45:47;;;;;;;;;;;7.70;77.40;;;;;;5124007;28;19924;-73
2022/02/07 11:48:14;;;;;;;;;;;7.70;74.50;;;;;;5119799;28;19927;-74
2022/02/07 11:50:44;;;;;;;;;;;7.80;72.70;;;;;;5122723;28;19924;-74
2022/02/07 11:53:11;;;;;;;;;;;7.80;72.10;;;;;;5125066;28;19923;-74
2022/02/07 11:55:41;;;;;;;;;;;7.80;70.70;;;;;;5125128;28;19924;-74
2022/02/07 11:58:13;;;;;;;;;;;7.80;71.40;;;;;;5119823;28;19928;-75
2022/02/07 12:00:45;;;;;;;;;;;8.00;71.00;;;;;;5120646;28;20371;-75
2022/02/07 12:03:14;;;;;;;;;;;8.10;70.00;;;;;;5124517;28;20287;-75
2022/02/07 12:05:45;;;;;;;;;;;8.20;69.80;;;;;;5126285;28;19930;-74
2022/02/07 12:08:17;;;;;;;;;;;8.20;69.10;;;;;;5126977;27;19923;-74
2022/02/07 12:10:49;;;;;;;;;;;8.30;67.20;;;;;;5119080;27;20416;-73
2022/02/07 12:13:33;;;;;;;;;;;8.20;65.10;;;;;;5126543;28;19924;-74
2022/02/07 12:16:04;;;;;;;;;;;8.10;64.90;;;;;;5115577;28;19924;-74
2022/02/07 12:18:32;;;;;;;;;;;8.20;65.80;;;;;;5124131;27;20356;-74
2022/02/07 12:21:13;;;;;;;;;;;8.30;66.60;;;;;;5127094;27;19924;-74
2022/02/07 12:23:40;;;;;;;;;;;8.40;66.60;;;;;;5122701;28;19923;-74
2022/02/07 12:26:09;;;;;;;;;;;8.50;65.70;;;;;;5107934;28;20355;-74
2022/02/07 12:28:42;;;;;;;;;;;8.50;66.60;;;;;;5114907;28;19986;-74
2022/02/07 12:31:16;;;;;;;;;;;8.40;65.90;;;;;;5110449;28;20288;-74
2022/02/07 12:33:45;;;;;;;;;;;8.40;64.90;;;;;;5114647;28;19982;-74
2022/02/07 12:36:12;;;;;;;;;;;8.40;64.50;;;;;;5105398;28;19942;-73
2022/02/07 12:38:40;;;;;;;;;;;8.30;65.80;;;;;;5110815;28;19934;-75
2022/02/07 12:41:08;;;;;;;;;;;8.40;64.30;;;;;;5108271;28;19930;-74
2022/02/07 12:43:37;;;;;;;;;;;8.40;64.20;;;;;;5110073;28;19928;-74
2022/02/07 12:46:06;;;;;;;;;;;8.30;65.50;;;;;;5112219;28;19931;-74
2022/02/07 12:48:34;;;;;;;;;;;8.20;64.50;;;;;;5107625;28;19936;-75
2022/02/07 12:51:02;;;;;;;;;;;8.20;64.40;;;;;;5111462;28;20012;-75
2022/02/07 12:53:30;;;;;;;;;;;8.30;65.80;;;;;;5112341;28;19930;-75
2022/02/07 12:55:57;;;;;;;;;;;8.50;67.80;;;;;;5109922;28;19924;-74
2022/02/07 12:58:24;;;;;;;;;;;8.50;65.20;;;;;;5111757;28;19966;-74
2022/02/07 13:00:51;;;;;;;;;;;8.50;66.70;;;;;;5114165;28;19928;-74
2022/02/07 13:03:17;;;;;;;;;;;8.60;66.70;;;;;;5114131;28;20002;-75
2022/02/07 13:05:44;;;;;;;;;;;8.50;67.00;;;;;;5106232;28;20014;-74
2022/02/07 13:08:15;;;;;;;;;;;8.50;68.00;;;;;;5109326;28;19924;-77
2022/02/07 13:10:42;;;;;;;;;;;8.50;66.10;;;;;;5114641;28;19924;-75
2022/02/07 13:13:27;;;;;;;;;;;8.40;65.30;;;;;;5111635;28;20010;-74
2022/02/07 13:15:54;;;;;;;;;;;8.30;64.90;;;;;;5113830;28;19928;-75
2022/02/07 13:18:21;;;;;;;;;;;8.30;66.40;;;;;;5107958;28;19930;-75
2022/02/07 13:20:48;;;;;;;;;;;8.50;66.80;;;;;;5113303;28;19976;-76
2022/02/07 13:23:17;;;;;;;;;;;8.60;66.90;;;;;;5103805;28;19924;-74
2022/02/07 13:25:45;;;;;;;;;;;8.70;65.90;;;;;;5097605;28;19932;-76
2022/02/07 13:28:12;;;;;;;;;;;8.70;64.20;;;;;;5100066;28;20391;-75
2022/02/07 13:30:40;;;;;;;;;;;8.70;63.40;;;;;;5105497;28;19924;-76
2022/02/07 13:33:06;;;;;;;;;;;8.60;62.50;;;;;;5111559;28;19939;-76
2022/02/07 13:35:42;;;;;;;;;;;8.50;61.00;;;;;;5110869;28;19924;-77
2022/02/07 13:38:08;;;;;;;;;;;8.60;62.00;;;;;;5101528;28;19993;-76
2022/02/07 13:40:43;;;;;;;;;;;8.60;62.50;;;;;;5106470;28;20400;-80
2022/02/07 13:43:11;;;;;;;;;;;8.60;60.70;;;;;;5109712;28;19930;-75
2022/02/07 13:45:39;;;;;;;;;;;8.60;60.80;;;;;;5114126;28;19924;-74
2022/02/07 13:48:06;;;;;;;;;;;8.40;58.40;;;;;;5106734;28;20408;-76
2022/02/07 13:50:36;;;;;;;;;;;8.30;59.00;;;;;;5109086;28;19927;-76
2022/02/07 13:53:04;;;;;;;;;;;8.50;61.00;;;;;;5107586;28;19977;-76
2022/02/07 13:55:34;;;;;;;;;;;8.60;60.50;;;;;;5108650;28;19940;-76
2022/02/07 13:58:03;;;;;;;;;;;8.60;60.20;;;;;;5107399;28;20268;-76
2022/02/07 14:00:31;;;;;;;;;;;8.50;59.80;;;;;;5108536;28;19924;-75
2022/02/07 14:03:04;;;;;;;;;;;8.60;60.10;;;;;;5109633;28;19971;-77
2022/02/07 14:05:32;;;;;;;;;;;8.60;61.70;;;;;;5108294;28;20374;-75
2022/02/07 14:08:02;;;;;;;;;;;8.50;59.60;;;;;;5104132;28;20474;-75
2022/02/07 14:10:33;;;;;;;;;;;8.50;60.70;;;;;;5110471;28;19913;-73
2022/02/07 14:13:01;;;;;;;;;;;8.40;59.40;;;;;;5133370;28;19917;-79
2022/02/07 14:15:28;;;;;;;;;;;8.40;60.00;;;;;;5139761;28;19938;-79
2022/02/07 14:17:55;;;;;;;;;;;8.40;58.30;;;;;;5139815;28;19916;-69
2022/02/07 14:20:29;;;;;;;;;;;8.30;58.50;;;;;;5138493;28;19924;-79
2022/02/07 14:22:56;;;;;;;;;;;8.40;58.20;;;;;;5134515;28;19911;-79
2022/02/07 14:25:27;;;;;;;;;;;8.30;57.10;;;;;;5115724;28;19974;-76
2022/02/07 14:27:54;;;;;;;;;;;8.40;57.70;;;;;;5101643;28;20359;-75
2022/02/07 14:30:23;;;;;;;;;;;8.30;58.40;;;;;;5109573;28;19925;-75
2022/02/07 14:32:50;;;;;;;;;;;8.40;59.70;;;;;;5099990;28;19924;-76
2022/02/07 14:35:17;;;;;;;;;;;8.50;59.80;;;;;;5105907;28;19946;-76
2022/02/07 14:37:43;;;;;;;;;;;8.50;61.50;;;;;;5110333;28;19949;-76
2022/02/07 14:40:10;;;;;;;;;;;8.40;63.10;;;;;;5111177;28;20393;-75
2022/02/07 14:42:37;;;;;;;;;;;8.50;65.40;;;;;;5106254;28;19938;-76
2022/02/07 14:45:13;;;;;;;;;;;8.30;63.60;;;;;;5104108;28;20399;-75
2022/02/07 14:47:55;;;;;;;;;;;8.30;64.30;;;;;;5103670;28;19924;-75
2022/02/07 14:50:24;;;;;;;;;;;8.20;63.70;;;;;;5113028;28;20026;-76
2022/02/07 14:52:51;;;;;;;;;;;8.20;60.90;;;;;;5111046;28;19946;-76
2022/02/07 14:55:18;;;;;;;;;;;8.20;63.20;;;;;;5100879;28;19979;-75
2022/02/07 14:57:45;;;;;;;;;;;8.20;62.50;;;;;;5108067;28;20095;-76
2022/02/07 15:00:13;;;;;;;;;;;8.20;60.60;;;;;;5107002;28;20270;-76
2022/02/07 15:02:41;;;;;;;;;;;8.20;60.30;;;;;;5105226;28;19924;-75
2022/02/07 15:05:08;;;;;;;;;;;8.10;59.00;;;;;;5106960;28;20416;-75
2022/02/07 15:07:35;;;;;;;;;;;8.10;60.50;;;;;;5105418;28;19924;-75
2022/02/07 15:10:01;;;;;;;;;;;8.10;59.60;;;;;;5108607;28;19930;-75
2022/02/07 15:12:28;;;;;;;;;;;8.00;59.30;;;;;;5110339;28;20386;-76
2022/02/07 15:14:56;;;;;;;;;;;8.00;59.80;;;;;;5108267;28;19954;-75
2022/02/07 15:17:24;;;;;;;;;;;8.00;60.70;;;;;;5110999;28;20334;-75
2022/02/07 15:19:55;;;;;;;;;;;8.00;60.60;;;;;;5107617;28;20409;-74
2022/02/07 15:22:21;;;;;;;;;;;8.00;61.70;;;;;;5104404;28;19923;-74
2022/02/07 15:24:48;;;;;;;;;;;8.00;63.10;;;;;;5104595;28;19928;-75
2022/02/07 15:27:14;;;;;;;;;;;8.00;63.70;;;;;;5104879;28;19930;-75
2022/02/07 15:29:42;;;;;;;;;;;7.90;64.90;;;;;;5098755;28;22182;-75
2022/02/07 15:32:22;;;;;;;;;;;7.90;66.20;;;;;;5096093;28;20401;-75
2022/02/07 15:34:50;;;;;;;;;;;7.80;66.20;;;;;;5092560;28;19934;-75
2022/02/07 15:37:18;;;;;;;;;;;7.80;66.30;;;;;;5094226;28;20413;-75
2022/02/07 15:39:45;;;;;;;;;;;7.80;65.00;;;;;;5094661;28;19924;-76
2022/02/07 15:42:11;;;;;;;;;;;7.70;65.30;;;;;;5093549;28;19963;-75
2022/02/07 15:44:38;;;;;;;;;;;7.70;66.10;;;;;;5094780;28;19932;-76
2022/02/07 15:47:05;;;;;;;;;;;7.70;65.80;;;;;;5095457;28;20512;-76
2022/02/07 15:49:33;;;;;;;;;;;7.60;66.00;;;;;;5093383;28;20019;-75
2022/02/07 15:52:00;;;;;;;;;;;7.60;65.70;;;;;;5098099;28;20344;-75
2022/02/07 15:54:30;;;;;;;;;;;7.50;64.60;;;;;;5104401;28;20368;-75
2022/02/07 15:56:57;;;;;;;;;;;7.50;65.60;;;;;;5105656;28;20272;-76
2022/02/07 15:59:24;;;;;;;;;;;7.40;65.60;;;;;;5110779;28;19924;-76
2022/02/07 16:01:51;;;;;;;;;;;7.40;65.60;;;;;;5110579;28;20422;-75
2022/02/07 16:04:17;;;;;;;;;;;7.30;66.30;;;;;;5112180;28;19949;-76
2022/02/07 16:06:44;;;;;;;;;;;7.30;66.30;;;;;;5104419;28;20449;-76
2022/02/07 16:09:11;;;;;;;;;;;7.20;66.40;;;;;;5095367;28;19934;-77
2022/02/07 16:11:39;;;;;;;;;;;7.20;67.00;;;;;;5102570;28;19932;-76
2022/02/07 16:14:07;;;;;;;;;;;7.10;67.50;;;;;;5096034;28;20022;-76
2022/02/07 16:16:34;;;;;;;;;;;7.10;68.30;;;;;;5100909;28;19927;-76